ウィニペグ の空港の天気 - METARとTAF

ウィニペグ国際空港 ( CYWG / YWG ) - カナダ マニトバ州ウィニペグ
飛行場実況気象(Metar)
観測時間10/16 01:00 CDT (10/16 06:00 UTC)
風向・風速西北西 5m/s
視程10km以上
天気現象
全天を覆う雲 雲底高度 1980m
気温3℃
湿度87%
気圧1010hPa
METARCYWG 160600Z 29009KT 15SM OVC065 03/01 A2979 RMK SC8 SLP100
過去の天気等 Google飛行場航空写真 Wunderground天気予報

過去48時間のMETAR

飛行場予報(TAF)
発表時間: 10/16 00:44 CDT (10/16 05:44 UTC)
予報対象時間: 16日1時 CDT ~ 17日1時 CDT
風向・風速西北西 6m/s
視程10km以上
全天を覆う雲 雲底高度 910m
16日1時 CDT ~ 16日4時 CDT に一時的に
視程10km以上
天気現象弱いしゅう雨 もや
全天を覆う雲 雲底高度 610m
16日4時 CDT から
風向・風速北西 8m/s 瞬間風速 13m/s
視程10km以上
全天を覆う雲 雲底高度 910m
16日4時 CDT ~ 16日14時 CDT に一時的に
視程6440m
天気現象弱い雪 もや
全天を覆う雲 雲底高度 610m
16日14時 CDT から
風向・風速北西 8m/s 瞬間風速 13m/s
視程6440m
天気現象弱い雪雨
全天を覆う雲 雲底高度 610m
TAF CYWG 160544Z 1606/1706 30012KT P6SM OVC030
TEMPO 1606/1609 6SM -SHRA BR OVC020
FM160900 32015G25KT P6SM OVC030
TEMPO 1609/1619 4SM -SN BR OVC020
FM161900 32015G25KT 4SM -SNRA OVC020 RMK NXT FCST BY 161200Z